createdAt,value
2023-04-30T00:01:01.200Z,11.07
2023-04-30T00:03:27.846Z,9.73
2023-04-30T00:05:56.797Z,10.60
2023-04-30T00:08:23.250Z,9.30
2023-04-30T00:10:54.525Z,9.88
2023-04-30T00:15:47.329Z,8.35
2023-04-30T00:18:13.828Z,8.30
2023-04-30T00:20:40.318Z,9.57
2023-04-30T00:23:06.997Z,9.60
2023-04-30T00:25:33.399Z,8.40
2023-04-30T00:27:59.796Z,8.73
2023-04-30T00:30:26.266Z,9.20
2023-04-30T00:32:55.118Z,7.47
2023-04-30T00:35:21.603Z,8.73
2023-04-30T00:37:50.541Z,8.05
2023-04-30T00:40:17.035Z,9.23
2023-04-30T00:42:43.481Z,7.43
2023-04-30T00:45:10.248Z,8.03
2023-04-30T00:47:37.199Z,7.53
2023-04-30T00:50:03.714Z,7.93
2023-04-30T00:52:30.186Z,9.43
2023-04-30T00:54:56.630Z,7.32
2023-04-30T00:57:23.055Z,7.75
2023-04-30T00:59:52.793Z,7.85
2023-04-30T01:02:19.693Z,8.38
2023-04-30T01:04:46.379Z,8.73
2023-04-30T01:07:12.840Z,9.23
2023-04-30T01:09:39.418Z,15.10
2023-04-30T01:12:09.589Z,10.87
2023-04-30T01:14:39.197Z,8.57
2023-04-30T01:17:06.641Z,9.40
2023-04-30T01:19:45.549Z,10.00
2023-04-30T01:22:21.404Z,9.48
2023-04-30T01:25:00.778Z,8.27
2023-04-30T01:27:29.378Z,8.37
2023-04-30T01:29:58.282Z,8.63
2023-04-30T01:32:24.876Z,9.65
2023-04-30T01:34:51.282Z,10.70
2023-04-30T01:37:22.719Z,8.63
2023-04-30T01:39:49.178Z,10.80
2023-04-30T01:42:33.296Z,9.68
2023-04-30T01:44:59.760Z,9.57
2023-04-30T01:47:26.217Z,8.70
2023-04-30T01:49:53.080Z,10.98
2023-04-30T01:52:22.957Z,9.48
2023-04-30T01:54:51.366Z,9.23
2023-04-30T01:57:38.368Z,8.20
2023-04-30T02:00:05.085Z,9.02
2023-04-30T02:02:31.602Z,7.78
2023-04-30T02:05:00.418Z,8.35
2023-04-30T02:07:45.519Z,8.30
2023-04-30T02:10:12.451Z,10.73
2023-04-30T02:12:39.102Z,8.23
2023-04-30T02:15:06.174Z,8.75
2023-04-30T02:17:32.840Z,8.55
2023-04-30T02:20:01.701Z,10.00
2023-04-30T02:22:28.243Z,7.43
2023-04-30T02:24:55.981Z,9.30
2023-04-30T02:27:23.234Z,8.45
2023-04-30T02:29:49.844Z,8.65
2023-04-30T02:32:16.516Z,8.32
2023-04-30T02:34:45.368Z,8.17
2023-04-30T02:37:14.113Z,7.43
2023-04-30T02:39:41.314Z,8.60
2023-04-30T02:42:08.067Z,7.97
2023-04-30T02:44:34.676Z,7.05
2023-04-30T02:47:01.401Z,6.82
2023-04-30T02:49:28.036Z,8.27
2023-04-30T02:51:56.875Z,6.68
2023-04-30T02:54:25.677Z,6.90
2023-04-30T02:56:52.160Z,8.40
2023-04-30T02:59:18.583Z,8.70
2023-04-30T03:01:45.067Z,7.07
2023-04-30T03:04:11.539Z,6.60
2023-04-30T03:06:38.220Z,7.53
2023-04-30T03:09:07.130Z,6.70
2023-04-30T03:11:37.526Z,6.72
2023-04-30T03:14:06.964Z,7.40
2023-04-30T03:16:33.489Z,7.90
2023-04-30T03:18:59.918Z,6.97
2023-04-30T03:21:26.578Z,6.70
2023-04-30T03:23:53.014Z,7.03
2023-04-30T03:26:21.770Z,7.68
2023-04-30T03:28:50.622Z,6.40
2023-04-30T03:31:17.093Z,6.18
2023-04-30T03:33:45.970Z,7.87
2023-04-30T03:36:13.138Z,6.75
2023-04-30T03:38:39.641Z,6.30
2023-04-30T03:41:09.024Z,7.15
2023-04-30T03:43:38.163Z,6.68
2023-04-30T03:46:04.642Z,6.30
2023-04-30T03:48:31.488Z,7.80
2023-04-30T03:50:57.977Z,6.95
2023-04-30T03:53:26.624Z,7.22
2023-04-30T03:55:53.954Z,7.45
2023-04-30T03:58:21.095Z,7.22
2023-04-30T04:00:49.917Z,6.85
2023-04-30T04:03:16.574Z,7.03
2023-04-30T04:05:43.057Z,6.37
2023-04-30T04:08:09.847Z,6.97
2023-04-30T04:10:36.540Z,7.03
2023-04-30T04:13:05.474Z,6.60
2023-04-30T04:15:32.005Z,7.07
2023-04-30T04:17:58.505Z,6.57
2023-04-30T04:20:27.464Z,6.43
2023-04-30T04:22:53.952Z,6.78
2023-04-30T04:25:20.587Z,6.15
2023-04-30T04:27:47.133Z,6.00
2023-04-30T04:30:16.161Z,6.68
2023-04-30T04:32:47.065Z,6.30
2023-04-30T04:35:16.185Z,5.90
2023-04-30T04:37:42.679Z,6.30
2023-04-30T04:40:09.255Z,6.57
2023-04-30T04:42:40.754Z,6.13
2023-04-30T04:45:08.081Z,6.43
2023-04-30T04:47:34.666Z,6.45
2023-04-30T04:50:03.540Z,6.13
2023-04-30T04:52:30.027Z,6.00
2023-04-30T04:54:59.079Z,5.68
2023-04-30T04:57:27.981Z,6.18
2023-04-30T04:59:54.849Z,6.22
2023-04-30T05:02:23.432Z,7.07
2023-04-30T05:04:51.174Z,5.80
2023-04-30T05:07:20.107Z,6.33
2023-04-30T05:09:49.511Z,6.50
2023-04-30T05:12:16.142Z,6.00
2023-04-30T05:14:45.153Z,5.97
2023-04-30T05:17:11.590Z,6.15
2023-04-30T05:19:37.977Z,6.20
2023-04-30T05:22:06.466Z,6.22
2023-04-30T05:24:35.259Z,6.03
2023-04-30T05:27:05.511Z,6.38
2023-04-30T05:29:32.028Z,6.35
2023-04-30T05:31:58.563Z,6.03
2023-04-30T05:34:27.654Z,6.57
2023-04-30T05:36:54.110Z,6.05
2023-04-30T05:39:20.737Z,6.15
2023-04-30T05:41:47.179Z,6.40
2023-04-30T05:44:13.672Z,5.90
2023-04-30T05:46:40.184Z,6.47
2023-04-30T05:49:08.920Z,6.32
2023-04-30T05:51:35.429Z,5.82
2023-04-30T05:54:01.858Z,5.80
2023-04-30T05:56:30.637Z,6.03
2023-04-30T05:58:57.091Z,5.55
2023-04-30T06:01:24.369Z,6.50
2023-04-30T06:03:50.972Z,5.83
2023-04-30T06:06:19.921Z,6.07
2023-04-30T06:08:46.546Z,5.90
2023-04-30T06:11:13.258Z,5.88
2023-04-30T06:13:39.817Z,5.95
2023-04-30T06:16:07.015Z,6.20
2023-04-30T06:18:33.610Z,5.80
2023-04-30T06:20:59.989Z,5.83
2023-04-30T06:23:26.416Z,6.30
2023-04-30T06:25:55.317Z,5.60
2023-04-30T06:28:21.811Z,5.82
2023-04-30T06:30:48.479Z,5.70
2023-04-30T06:33:14.912Z,5.72
2023-04-30T06:35:41.466Z,5.73
2023-04-30T06:38:10.975Z,5.67
2023-04-30T06:40:39.971Z,6.03
2023-04-30T06:43:06.540Z,6.22
2023-04-30T06:45:35.656Z,5.80
2023-04-30T06:48:04.655Z,5.30
2023-04-30T06:50:31.238Z,5.68
2023-04-30T06:52:57.652Z,5.85
2023-04-30T06:55:24.347Z,5.57
2023-04-30T06:57:53.145Z,5.80
2023-04-30T07:00:19.688Z,5.97
2023-04-30T07:02:48.052Z,5.40
2023-04-30T07:05:14.626Z,5.60
2023-04-30T07:07:43.807Z,5.43
2023-04-30T07:10:10.525Z,5.53
2023-04-30T07:12:37.196Z,5.50
2023-04-30T07:15:03.898Z,5.43
2023-04-30T07:17:30.349Z,6.13
2023-04-30T07:19:59.688Z,5.50
2023-04-30T07:22:26.228Z,5.60
2023-04-30T07:24:52.677Z,5.97
2023-04-30T07:27:19.128Z,5.57
2023-04-30T07:29:45.726Z,5.93
2023-04-30T07:32:12.188Z,5.60
2023-04-30T07:34:39.314Z,5.55
2023-04-30T07:37:05.817Z,5.60
2023-04-30T07:39:32.360Z,5.67
2023-04-30T07:41:58.799Z,5.67
2023-04-30T07:44:27.693Z,5.70
2023-04-30T07:46:54.193Z,5.60
2023-04-30T07:49:22.918Z,5.87
2023-04-30T07:51:49.399Z,5.60
2023-04-30T07:54:15.915Z,5.67
2023-04-30T07:56:42.863Z,5.67
2023-04-30T07:59:11.688Z,5.93
2023-04-30T08:01:38.251Z,5.70
2023-04-30T08:04:07.554Z,5.50
2023-04-30T08:06:34.420Z,5.75
2023-04-30T08:09:01.034Z,5.50
2023-04-30T08:11:27.501Z,5.70
2023-04-30T08:13:54.060Z,5.32
2023-04-30T08:16:20.600Z,5.30
2023-04-30T08:18:49.213Z,5.70
2023-04-30T08:21:15.732Z,5.50
2023-04-30T08:23:42.177Z,5.32
2023-04-30T08:26:11.091Z,5.60
2023-04-30T08:28:37.536Z,5.63
2023-04-30T08:31:04.070Z,5.10
2023-04-30T08:33:32.005Z,5.45
2023-04-30T08:35:59.923Z,5.53
2023-04-30T08:38:28.745Z,5.60
2023-04-30T08:41:14.188Z,5.22
2023-04-30T08:43:43.961Z,5.43
2023-04-30T08:46:11.465Z,5.63
2023-04-30T08:48:37.971Z,5.60
2023-04-30T08:51:06.776Z,5.68
2023-04-30T08:53:37.903Z,5.50
2023-04-30T08:56:04.678Z,5.20
2023-04-30T08:58:31.170Z,5.25
2023-04-30T09:01:03.758Z,5.78
2023-04-30T09:03:31.138Z,5.40
2023-04-30T09:06:00.075Z,5.20
2023-04-30T09:08:42.662Z,6.25
2023-04-30T09:11:27.964Z,7.47
2023-04-30T09:13:55.190Z,21.30
2023-04-30T09:16:21.966Z,35.10
2023-04-30T09:18:48.528Z,46.05
2023-04-30T09:21:15.031Z,57.17
2023-04-30T09:23:54.259Z,64.05
2023-04-30T09:26:36.876Z,65.88
2023-04-30T09:29:08.091Z,69.50
2023-04-30T09:31:36.101Z,66.13
2023-04-30T09:34:02.636Z,60.00
2023-04-30T09:36:29.847Z,61.28
2023-04-30T09:38:58.664Z,66.63
2023-04-30T09:41:26.442Z,68.90
2023-04-30T09:43:56.343Z,80.82
2023-04-30T09:46:24.991Z,124.17
2023-04-30T09:49:03.590Z,148.73
2023-04-30T09:51:30.014Z,157.77
2023-04-30T09:53:56.542Z,134.57
2023-04-30T09:56:26.772Z,128.07
2023-04-30T09:58:53.977Z,132.30
2023-04-30T10:01:21.286Z,123.50
2023-04-30T10:03:50.299Z,124.17
2023-04-30T10:06:19.997Z,141.05
2023-04-30T10:08:47.426Z,168.18
2023-04-30T10:11:16.774Z,173.77
2023-04-30T10:13:43.653Z,178.15
2023-04-30T10:16:36.963Z,179.05
2023-04-30T10:19:05.943Z,176.65
2023-04-30T10:21:32.721Z,170.52
2023-04-30T10:23:59.311Z,161.33
2023-04-30T10:26:28.089Z,161.40
2023-04-30T10:28:59.036Z,158.90
2023-04-30T10:31:25.727Z,159.50
2023-04-30T10:33:55.440Z,159.10
2023-04-30T10:36:23.593Z,160.57
2023-04-30T10:38:50.095Z,163.80
2023-04-30T10:41:16.849Z,164.05
2023-04-30T10:43:43.278Z,159.60
2023-04-30T10:46:09.979Z,167.60
2023-04-30T10:48:36.531Z,163.95
2023-04-30T10:51:03.799Z,171.77
2023-04-30T10:53:31.310Z,170.48
2023-04-30T10:56:06.979Z,172.00
2023-04-30T10:58:37.218Z,198.70
2023-04-30T11:01:04.593Z,206.43
2023-04-30T11:03:33.572Z,205.57
2023-04-30T11:06:04.985Z,204.52
2023-04-30T11:08:34.568Z,210.95
2023-04-30T11:11:01.756Z,208.32
2023-04-30T11:13:30.656Z,206.07
2023-04-30T11:16:01.016Z,205.57
2023-04-30T11:18:30.211Z,201.57
2023-04-30T11:20:59.663Z,207.23
2023-04-30T11:23:38.387Z,210.10
2023-04-30T11:26:10.702Z,207.37
2023-04-30T11:28:37.830Z,204.63
2023-04-30T11:31:04.546Z,204.57
2023-04-30T11:33:31.639Z,202.25
2023-04-30T11:35:58.550Z,198.65
2023-04-30T11:38:29.025Z,205.05
2023-04-30T11:40:56.264Z,201.52
2023-04-30T11:43:23.918Z,207.10
2023-04-30T11:45:59.505Z,200.63
2023-04-30T11:48:30.408Z,196.90
2023-04-30T11:50:56.946Z,198.13
2023-04-30T11:53:29.670Z,196.90
2023-04-30T11:55:56.111Z,205.00
2023-04-30T11:58:23.332Z,198.18
2023-04-30T12:00:52.752Z,203.27
2023-04-30T12:03:21.723Z,195.60
2023-04-30T12:05:48.152Z,193.85
2023-04-30T12:08:14.598Z,195.43
2023-04-30T12:10:43.458Z,187.10
2023-04-30T12:13:13.369Z,195.50
2023-04-30T12:15:39.931Z,198.68
2023-04-30T12:18:13.549Z,195.77
2023-04-30T12:20:42.619Z,192.53
2023-04-30T12:23:11.478Z,191.18
2023-04-30T12:25:44.079Z,193.55
2023-04-30T12:28:10.755Z,193.55
2023-04-30T12:30:37.632Z,188.63
2023-04-30T12:33:04.048Z,190.82
2023-04-30T12:35:34.095Z,192.00
2023-04-30T12:38:04.667Z,189.93
2023-04-30T12:40:31.197Z,181.70
2023-04-30T12:43:02.130Z,181.95
2023-04-30T12:45:47.106Z,178.43
2023-04-30T12:48:14.228Z,178.52
2023-04-30T12:50:40.810Z,179.67
2023-04-30T12:53:10.237Z,180.25
2023-04-30T12:55:37.945Z,179.05
2023-04-30T12:58:07.570Z,172.70
2023-04-30T13:01:03.478Z,173.13
2023-04-30T13:03:30.149Z,168.90
2023-04-30T13:05:59.181Z,174.15
2023-04-30T13:08:27.980Z,173.02
2023-04-30T13:10:54.510Z,163.63
2023-04-30T13:13:21.292Z,168.17
2023-04-30T13:15:48.235Z,163.40
2023-04-30T13:18:15.951Z,164.45
2023-04-30T13:20:43.811Z,158.80
2023-04-30T13:23:12.885Z,155.40
2023-04-30T13:25:39.612Z,152.00
2023-04-30T13:28:06.175Z,158.87
2023-04-30T13:30:32.566Z,149.37
2023-04-30T13:32:59.354Z,152.57
2023-04-30T13:35:25.820Z,144.55
2023-04-30T13:37:55.304Z,145.50
2023-04-30T13:40:21.826Z,148.17
2023-04-30T13:42:49.034Z,141.10
2023-04-30T13:45:16.198Z,143.32
2023-04-30T13:47:42.899Z,144.38
2023-04-30T13:50:09.874Z,140.75
2023-04-30T13:52:36.301Z,136.80
2023-04-30T13:55:05.157Z,136.00
2023-04-30T13:57:33.389Z,134.10
2023-04-30T14:00:00.028Z,134.57
2023-04-30T14:02:27.478Z,135.80
2023-04-30T14:05:04.962Z,131.17
2023-04-30T14:07:34.911Z,131.27
2023-04-30T14:10:01.338Z,130.05
2023-04-30T14:12:30.521Z,126.85
2023-04-30T14:14:57.880Z,124.87
2023-04-30T14:17:25.057Z,121.78
2023-04-30T14:19:51.912Z,123.13
2023-04-30T14:22:20.737Z,120.97
2023-04-30T14:24:47.290Z,117.87
2023-04-30T14:27:16.051Z,117.83
2023-04-30T14:29:42.628Z,119.43
2023-04-30T14:32:12.978Z,116.72
2023-04-30T14:34:39.482Z,116.97
2023-04-30T14:37:06.101Z,117.50
2023-04-30T14:39:34.790Z,113.22
2023-04-30T14:42:01.707Z,110.15
2023-04-30T14:44:30.613Z,113.68
2023-04-30T14:46:57.063Z,112.03
2023-04-30T14:49:23.513Z,108.33
2023-04-30T14:51:52.248Z,110.43
2023-04-30T14:54:18.712Z,108.07
2023-04-30T14:56:45.263Z,108.40
2023-04-30T14:59:11.961Z,105.53
2023-04-30T15:01:38.346Z,103.93
2023-04-30T15:04:07.627Z,105.33
2023-04-30T15:06:36.463Z,103.57
2023-04-30T15:09:06.557Z,103.93
2023-04-30T15:11:33.062Z,100.38
2023-04-30T15:14:02.115Z,98.80
2023-04-30T15:16:29.275Z,98.77
2023-04-30T15:18:55.997Z,95.87
2023-04-30T15:21:22.523Z,96.95
2023-04-30T15:23:50.364Z,94.95
2023-04-30T15:26:16.963Z,93.87
2023-04-30T15:28:44.336Z,92.05
2023-04-30T15:31:11.448Z,90.40
2023-04-30T15:33:42.021Z,89.88
2023-04-30T15:36:11.095Z,85.28
2023-04-30T15:38:37.570Z,87.60
2023-04-30T15:41:04.037Z,87.27
2023-04-30T15:43:32.331Z,86.80
2023-04-30T15:45:58.923Z,86.10
2023-04-30T15:48:27.692Z,82.60
2023-04-30T15:50:54.272Z,82.37
2023-04-30T15:53:23.818Z,82.53
2023-04-30T15:55:50.882Z,80.87
2023-04-30T15:58:17.397Z,80.78
2023-04-30T16:00:46.625Z,79.55
2023-04-30T16:03:15.920Z,76.63
2023-04-30T16:05:42.762Z,77.20
2023-04-30T16:08:12.250Z,76.80
2023-04-30T16:10:38.918Z,76.87
2023-04-30T16:13:05.493Z,74.97
2023-04-30T16:15:32.516Z,72.10
2023-04-30T16:17:59.154Z,72.40
2023-04-30T16:20:27.357Z,75.33
2023-04-30T16:22:54.144Z,69.88
2023-04-30T16:25:20.900Z,70.00
2023-04-30T16:27:47.592Z,68.93
2023-04-30T16:30:16.476Z,66.10
2023-04-30T16:32:45.357Z,68.78
2023-04-30T16:35:11.858Z,66.35
2023-04-30T16:37:38.390Z,66.38
2023-04-30T16:40:06.499Z,65.90
2023-04-30T16:42:33.916Z,63.92
2023-04-30T16:45:00.394Z,62.40
2023-04-30T16:47:29.296Z,64.13
2023-04-30T16:49:59.168Z,60.22
2023-04-30T16:52:25.767Z,60.03
2023-04-30T16:54:52.310Z,60.38
2023-04-30T16:57:18.836Z,59.60
2023-04-30T16:59:46.741Z,57.00
2023-04-30T17:02:13.246Z,57.47
2023-04-30T17:04:39.714Z,56.43
2023-04-30T17:07:08.743Z,58.17
2023-04-30T17:09:37.768Z,54.75
2023-04-30T17:12:06.619Z,55.40
2023-04-30T17:14:35.685Z,54.47
2023-04-30T17:17:05.037Z,55.15
2023-04-30T17:19:31.529Z,54.55
2023-04-30T17:21:58.046Z,51.63
2023-04-30T17:24:24.598Z,52.38
2023-04-30T17:26:51.603Z,50.90
2023-04-30T17:29:21.157Z,51.40
2023-04-30T17:31:50.380Z,48.88
2023-04-30T17:34:16.969Z,49.50
2023-04-30T17:36:44.644Z,50.35
2023-04-30T17:39:11.448Z,46.70
2023-04-30T17:41:40.063Z,48.75
2023-04-30T17:44:06.586Z,48.33
2023-04-30T17:46:33.119Z,48.78
2023-04-30T17:49:03.650Z,47.88
2023-04-30T17:51:31.662Z,47.17
2023-04-30T17:54:00.406Z,46.05
2023-04-30T17:56:28.660Z,46.38
2023-04-30T17:58:56.027Z,47.53
2023-04-30T18:01:23.450Z,43.25
2023-04-30T18:03:49.976Z,45.80
2023-04-30T18:06:16.627Z,43.60
2023-04-30T18:08:45.717Z,44.95
2023-04-30T18:11:12.237Z,45.13
2023-04-30T18:13:41.296Z,42.92
2023-04-30T18:16:08.224Z,45.30
2023-04-30T18:18:37.323Z,42.83
2023-04-30T18:21:03.800Z,41.50
2023-04-30T18:23:30.312Z,40.58
2023-04-30T18:25:59.440Z,41.42
2023-04-30T18:28:25.908Z,40.40
2023-04-30T18:30:52.314Z,40.47
2023-04-30T18:33:18.856Z,37.60
2023-04-30T18:35:50.321Z,39.53
2023-04-30T18:38:20.747Z,37.80
2023-04-30T18:40:47.409Z,39.67
2023-04-30T18:43:16.197Z,39.00
2023-04-30T18:45:45.186Z,36.47
2023-04-30T18:48:12.612Z,35.17
2023-04-30T18:50:41.766Z,35.33
2023-04-30T18:53:09.714Z,35.95
2023-04-30T18:55:43.923Z,38.72
2023-04-30T18:58:10.449Z,36.33
2023-04-30T19:00:36.944Z,35.07
2023-04-30T19:03:03.480Z,34.90
2023-04-30T19:05:32.308Z,35.07
2023-04-30T19:08:01.138Z,31.90
2023-04-30T19:10:27.551Z,33.55
2023-04-30T19:12:54.102Z,35.63
2023-04-30T19:15:20.519Z,33.72
2023-04-30T19:17:49.459Z,33.40
2023-04-30T19:20:15.990Z,36.83
2023-04-30T19:22:45.225Z,33.50
2023-04-30T19:25:11.716Z,32.38
2023-04-30T19:27:40.447Z,32.15
2023-04-30T19:30:07.129Z,32.25
2023-04-30T19:32:33.596Z,31.77
2023-04-30T19:35:00.162Z,30.50
2023-04-30T19:37:26.963Z,32.13
2023-04-30T19:39:53.594Z,31.30
2023-04-30T19:42:21.408Z,29.23
2023-04-30T19:44:50.242Z,28.25
2023-04-30T19:47:16.597Z,29.65
2023-04-30T19:49:44.627Z,30.73
2023-04-30T19:52:11.162Z,30.30
2023-04-30T19:54:37.601Z,29.75
2023-04-30T19:57:04.059Z,30.27
2023-04-30T19:59:31.429Z,28.58
2023-04-30T20:02:00.505Z,29.77
2023-04-30T20:04:31.830Z,28.73
2023-04-30T20:07:00.700Z,28.30
2023-04-30T20:09:30.025Z,26.87
2023-04-30T20:11:56.477Z,27.40
2023-04-30T20:14:23.975Z,27.67
2023-04-30T20:16:54.436Z,30.33
2023-04-30T20:19:21.991Z,26.00
2023-04-30T20:21:52.050Z,28.77
2023-04-30T20:24:19.117Z,27.02
2023-04-30T20:26:45.748Z,25.63
2023-04-30T20:29:14.980Z,25.93
2023-04-30T20:31:43.908Z,27.20
2023-04-30T20:34:12.744Z,24.77
2023-04-30T20:36:39.962Z,24.33
2023-04-30T20:39:08.524Z,26.65
2023-04-30T20:41:36.112Z,25.20
2023-04-30T20:44:05.778Z,25.27
2023-04-30T20:46:36.317Z,25.50
2023-04-30T20:49:05.258Z,24.58
2023-04-30T20:51:34.280Z,24.70
2023-04-30T20:54:00.859Z,25.05
2023-04-30T20:56:27.345Z,24.80
2023-04-30T20:58:54.597Z,24.67
2023-04-30T21:01:21.507Z,24.13
2023-04-30T21:03:48.460Z,23.95
2023-04-30T21:06:17.669Z,22.40
2023-04-30T21:08:46.657Z,24.23
2023-04-30T21:11:16.057Z,23.23
2023-04-30T21:13:42.484Z,23.50
2023-04-30T21:16:15.417Z,22.58
2023-04-30T21:18:41.954Z,23.45
2023-04-30T21:21:10.789Z,22.65
2023-04-30T21:23:37.620Z,21.70
2023-04-30T21:26:04.147Z,22.53
2023-04-30T21:28:35.435Z,23.50
2023-04-30T21:31:05.687Z,22.08
2023-04-30T21:33:32.388Z,20.95
2023-04-30T21:35:58.889Z,21.63
2023-04-30T21:38:25.282Z,21.52
2023-04-30T21:40:51.799Z,20.65
2023-04-30T21:43:20.712Z,20.83
2023-04-30T21:45:49.841Z,20.75
2023-04-30T21:48:18.447Z,20.98
2023-04-30T21:50:45.319Z,20.98
2023-04-30T21:53:13.284Z,20.73
2023-04-30T21:55:39.693Z,19.55
2023-04-30T21:58:08.432Z,19.65
2023-04-30T22:00:35.044Z,19.35
2023-04-30T22:03:01.576Z,19.95
2023-04-30T22:05:28.241Z,18.77
2023-04-30T22:07:55.093Z,19.45
2023-04-30T22:10:21.623Z,19.33
2023-04-30T22:12:48.308Z,18.53
2023-04-30T22:15:17.212Z,19.77
2023-04-30T22:17:46.144Z,18.33
2023-04-30T22:20:12.746Z,19.08
2023-04-30T22:22:39.450Z,19.38
2023-04-30T22:25:06.081Z,20.38
2023-04-30T22:27:34.922Z,17.88
2023-04-30T22:30:01.419Z,19.83
2023-04-30T22:32:27.949Z,18.77
2023-04-30T22:34:56.888Z,16.90
2023-04-30T22:37:24.424Z,18.52
2023-04-30T22:39:53.752Z,17.52
2023-04-30T22:42:23.586Z,16.43
2023-04-30T22:44:52.398Z,17.40
2023-04-30T22:47:18.928Z,18.10
2023-04-30T22:49:49.067Z,18.08
2023-04-30T22:52:15.618Z,18.00
2023-04-30T22:54:42.642Z,17.50
2023-04-30T22:57:11.622Z,17.30
2023-04-30T22:59:39.408Z,17.40
2023-04-30T23:02:06.145Z,16.63
2023-04-30T23:04:36.755Z,16.65
2023-04-30T23:07:05.656Z,15.85
2023-04-30T23:09:32.150Z,17.37
2023-04-30T23:11:58.618Z,15.75
2023-04-30T23:14:25.881Z,16.17
2023-04-30T23:16:52.321Z,15.15
2023-04-30T23:19:18.767Z,15.85
2023-04-30T23:21:45.194Z,16.35
2023-04-30T23:24:11.791Z,15.20
2023-04-30T23:26:38.405Z,15.77
2023-04-30T23:29:05.112Z,15.70
2023-04-30T23:31:31.650Z,15.83
2023-04-30T23:33:58.207Z,14.83
2023-04-30T23:36:24.710Z,15.60
2023-04-30T23:38:51.410Z,14.47
2023-04-30T23:41:20.268Z,14.40
2023-04-30T23:43:46.782Z,14.32
2023-04-30T23:46:14.032Z,14.02
2023-04-30T23:48:40.931Z,15.77
2023-04-30T23:51:08.931Z,14.32
2023-04-30T23:53:37.772Z,15.00
2023-04-30T23:56:04.231Z,13.80
2023-04-30T23:58:30.956Z,14.18
